sensor_id;sensor_type;location;lat;lon;timestamp;temperature;humidity
11221;DHT22;8517;53.546;10.104;2023-05-27T00:01:54;14.10;99.90
11221;DHT22;8517;53.546;10.104;2023-05-27T00:04:21;14.10;99.90
11221;DHT22;8517;53.546;10.104;2023-05-27T00:06:49;14.00;99.90
11221;DHT22;8517;53.546;10.104;2023-05-27T00:09:16;14.00;99.90
11221;DHT22;8517;53.546;10.104;2023-05-27T00:11:42;13.90;99.90
11221;DHT22;8517;53.546;10.104;2023-05-27T00:14:09;13.90;99.90
11221;DHT22;8517;53.546;10.104;2023-05-27T00:16:36;13.90;99.90
11221;DHT22;8517;53.546;10.104;2023-05-27T00:19:03;13.90;99.90
11221;DHT22;8517;53.546;10.104;2023-05-27T00:21:30;13.80;99.90
11221;DHT22;8517;53.546;10.104;2023-05-27T00:23:58;13.90;99.90
11221;DHT22;8517;53.546;10.104;2023-05-27T00:26:25;13.80;99.90
11221;DHT22;8517;53.546;10.104;2023-05-27T00:28:52;13.80;99.90
11221;DHT22;8517;53.546;10.104;2023-05-27T00:31:19;13.80;99.90
11221;DHT22;8517;53.546;10.104;2023-05-27T00:33:46;13.70;99.90
11221;DHT22;8517;53.546;10.104;2023-05-27T00:36:13;13.70;99.90
11221;DHT22;8517;53.546;10.104;2023-05-27T00:38:39;13.70;99.90
11221;DHT22;8517;53.546;10.104;2023-05-27T00:41:10;13.60;99.90
11221;DHT22;8517;53.546;10.104;2023-05-27T00:43:38;13.60;99.90
11221;DHT22;8517;53.546;10.104;2023-05-27T00:46:05;13.60;99.90
11221;DHT22;8517;53.546;10.104;2023-05-27T00:48:31;13.50;99.90
11221;DHT22;8517;53.546;10.104;2023-05-27T00:50:58;13.50;99.90
11221;DHT22;8517;53.546;10.104;2023-05-27T00:53:26;13.50;99.90
11221;DHT22;8517;53.546;10.104;2023-05-27T00:55:53;13.50;99.90
11221;DHT22;8517;53.546;10.104;2023-05-27T00:58:21;13.40;99.90
11221;DHT22;8517;53.546;10.104;2023-05-27T01:00:49;13.40;99.90
11221;DHT22;8517;53.546;10.104;2023-05-27T01:03:16;13.40;99.90
11221;DHT22;8517;53.546;10.104;2023-05-27T01:05:43;13.40;99.90
11221;DHT22;8517;53.546;10.104;2023-05-27T01:10:59;13.30;99.90
11221;DHT22;8517;53.546;10.104;2023-05-27T01:13:35;13.30;99.90
11221;DHT22;8517;53.546;10.104;2023-05-27T01:16:05;13.20;99.90
11221;DHT22;8517;53.546;10.104;2023-05-27T01:18:34;13.20;99.90
11221;DHT22;8517;53.546;10.104;2023-05-27T01:21:06;13.20;99.90
11221;DHT22;8517;53.546;10.104;2023-05-27T01:23:34;13.10;99.90
11221;DHT22;8517;53.546;10.104;2023-05-27T01:26:04;13.10;99.90
11221;DHT22;8517;53.546;10.104;2023-05-27T01:28:31;13.10;99.90
11221;DHT22;8517;53.546;10.104;2023-05-27T01:31:09;13.10;99.90
11221;DHT22;8517;53.546;10.104;2023-05-27T01:33:38;13.00;99.90
11221;DHT22;8517;53.546;10.104;2023-05-27T01:36:12;13.00;99.90
11221;DHT22;8517;53.546;10.104;2023-05-27T01:38:43;13.00;99.90
11221;DHT22;8517;53.546;10.104;2023-05-27T01:41:13;13.00;99.90
11221;DHT22;8517;53.546;10.104;2023-05-27T01:43:40;13.00;99.90
11221;DHT22;8517;53.546;10.104;2023-05-27T01:46:07;13.00;99.90
11221;DHT22;8517;53.546;10.104;2023-05-27T01:48:34;13.00;99.90
11221;DHT22;8517;53.546;10.104;2023-05-27T01:51:01;12.90;99.90
11221;DHT22;8517;53.546;10.104;2023-05-27T01:53:27;12.90;99.90
11221;DHT22;8517;53.546;10.104;2023-05-27T01:55:56;12.90;99.90
11221;DHT22;8517;53.546;10.104;2023-05-27T01:58:22;12.90;99.90
11221;DHT22;8517;53.546;10.104;2023-05-27T02:00:49;12.90;99.90
11221;DHT22;8517;53.546;10.104;2023-05-27T02:03:16;12.80;99.90
11221;DHT22;8517;53.546;10.104;2023-05-27T02:05:43;12.80;99.90
11221;DHT22;8517;53.546;10.104;2023-05-27T02:08:10;12.80;99.90
11221;DHT22;8517;53.546;10.104;2023-05-27T02:10:37;12.80;99.90
11221;DHT22;8517;53.546;10.104;2023-05-27T02:13:06;12.70;99.90
11221;DHT22;8517;53.546;10.104;2023-05-27T02:15:32;12.70;99.90
11221;DHT22;8517;53.546;10.104;2023-05-27T02:17:59;12.70;99.90
11221;DHT22;8517;53.546;10.104;2023-05-27T02:20:26;12.70;99.90
11221;DHT22;8517;53.546;10.104;2023-05-27T02:22:54;12.70;99.90
11221;DHT22;8517;53.546;10.104;2023-05-27T02:25:21;12.70;99.90
11221;DHT22;8517;53.546;10.104;2023-05-27T02:27:48;12.70;99.90
11221;DHT22;8517;53.546;10.104;2023-05-27T02:30:19;12.60;99.90
11221;DHT22;8517;53.546;10.104;2023-05-27T02:32:45;12.60;99.90
11221;DHT22;8517;53.546;10.104;2023-05-27T02:35:13;12.60;99.90
11221;DHT22;8517;53.546;10.104;2023-05-27T02:37:40;12.60;99.90
11221;DHT22;8517;53.546;10.104;2023-05-27T02:40:07;12.60;99.90
11221;DHT22;8517;53.546;10.104;2023-05-27T02:42:35;12.50;99.90
11221;DHT22;8517;53.546;10.104;2023-05-27T02:45:02;12.50;99.90
11221;DHT22;8517;53.546;10.104;2023-05-27T02:47:30;12.50;99.90
11221;DHT22;8517;53.546;10.104;2023-05-27T02:49:57;12.50;99.90
11221;DHT22;8517;53.546;10.104;2023-05-27T02:52:23;12.40;99.90
11221;DHT22;8517;53.546;10.104;2023-05-27T02:54:50;12.40;99.90
11221;DHT22;8517;53.546;10.104;2023-05-27T02:57:18;12.40;99.90
11221;DHT22;8517;53.546;10.104;2023-05-27T02:59:45;12.40;99.90
11221;DHT22;8517;53.546;10.104;2023-05-27T03:02:12;12.40;99.90
11221;DHT22;8517;53.546;10.104;2023-05-27T03:04:40;12.40;99.90
11221;DHT22;8517;53.546;10.104;2023-05-27T03:07:07;12.40;99.90
11221;DHT22;8517;53.546;10.104;2023-05-27T03:09:34;12.40;99.90
11221;DHT22;8517;53.546;10.104;2023-05-27T03:12:00;12.30;99.90
11221;DHT22;8517;53.546;10.104;2023-05-27T03:14:28;12.30;99.90
11221;DHT22;8517;53.546;10.104;2023-05-27T03:16:54;12.30;99.90
11221;DHT22;8517;53.546;10.104;2023-05-27T03:19:21;12.30;99.90
11221;DHT22;8517;53.546;10.104;2023-05-27T03:21:50;12.30;99.90
11221;DHT22;8517;53.546;10.104;2023-05-27T03:24:17;12.20;99.90
11221;DHT22;8517;53.546;10.104;2023-05-27T03:26:44;12.20;99.90
11221;DHT22;8517;53.546;10.104;2023-05-27T03:29:11;12.20;99.90
11221;DHT22;8517;53.546;10.104;2023-05-27T03:31:37;12.20;99.90
11221;DHT22;8517;53.546;10.104;2023-05-27T03:34:04;12.20;99.90
11221;DHT22;8517;53.546;10.104;2023-05-27T03:36:31;12.20;99.90
11221;DHT22;8517;53.546;10.104;2023-05-27T03:39:01;12.20;99.90
11221;DHT22;8517;53.546;10.104;2023-05-27T03:41:29;12.20;99.90
11221;DHT22;8517;53.546;10.104;2023-05-27T03:43:56;12.10;99.90
11221;DHT22;8517;53.546;10.104;2023-05-27T03:46:23;12.20;99.90
11221;DHT22;8517;53.546;10.104;2023-05-27T03:48:50;12.20;99.90
11221;DHT22;8517;53.546;10.104;2023-05-27T03:51:17;12.20;99.90
11221;DHT22;8517;53.546;10.104;2023-05-27T03:53:43;12.20;99.90
11221;DHT22;8517;53.546;10.104;2023-05-27T03:56:11;12.20;99.90
11221;DHT22;8517;53.546;10.104;2023-05-27T03:58:38;12.20;99.90
11221;DHT22;8517;53.546;10.104;2023-05-27T04:01:05;12.20;99.90
11221;DHT22;8517;53.546;10.104;2023-05-27T04:03:32;12.20;99.90
11221;DHT22;8517;53.546;10.104;2023-05-27T04:05:59;12.20;99.90
11221;DHT22;8517;53.546;10.104;2023-05-27T04:08:25;12.30;99.90
11221;DHT22;8517;53.546;10.104;2023-05-27T04:10:53;12.30;99.90
11221;DHT22;8517;53.546;10.104;2023-05-27T04:13:21;12.30;99.90
11221;DHT22;8517;53.546;10.104;2023-05-27T04:15:48;12.30;99.90
11221;DHT22;8517;53.546;10.104;2023-05-27T04:18:15;12.40;99.90
11221;DHT22;8517;53.546;10.104;2023-05-27T04:20:42;12.40;99.90
11221;DHT22;8517;53.546;10.104;2023-05-27T04:23:09;12.50;99.90
11221;DHT22;8517;53.546;10.104;2023-05-27T04:25:36;12.50;99.90
11221;DHT22;8517;53.546;10.104;2023-05-27T04:28:04;12.50;99.90
11221;DHT22;8517;53.546;10.104;2023-05-27T04:30:34;12.50;99.90
11221;DHT22;8517;53.546;10.104;2023-05-27T04:33:01;12.60;99.90
11221;DHT22;8517;53.546;10.104;2023-05-27T04:35:28;12.60;99.90
11221;DHT22;8517;53.546;10.104;2023-05-27T04:37:57;12.60;99.90
11221;DHT22;8517;53.546;10.104;2023-05-27T04:40:24;12.70;99.90
11221;DHT22;8517;53.546;10.104;2023-05-27T04:42:51;12.80;99.90
11221;DHT22;8517;53.546;10.104;2023-05-27T04:45:18;12.80;99.90
11221;DHT22;8517;53.546;10.104;2023-05-27T04:47:46;12.90;99.90
11221;DHT22;8517;53.546;10.104;2023-05-27T04:50:14;13.00;99.90
11221;DHT22;8517;53.546;10.104;2023-05-27T04:52:40;13.20;99.90
11221;DHT22;8517;53.546;10.104;2023-05-27T04:55:09;13.30;99.90
11221;DHT22;8517;53.546;10.104;2023-05-27T04:57:36;13.40;99.90
11221;DHT22;8517;53.546;10.104;2023-05-27T05:00:07;13.50;99.90
11221;DHT22;8517;53.546;10.104;2023-05-27T05:03:01;13.60;99.90
11221;DHT22;8517;53.546;10.104;2023-05-27T05:05:29;13.70;99.90
11221;DHT22;8517;53.546;10.104;2023-05-27T05:07:56;13.80;99.90
11221;DHT22;8517;53.546;10.104;2023-05-27T05:10:22;13.80;99.90
11221;DHT22;8517;53.546;10.104;2023-05-27T05:12:49;13.90;99.90
11221;DHT22;8517;53.546;10.104;2023-05-27T05:15:16;13.90;99.90
11221;DHT22;8517;53.546;10.104;2023-05-27T05:17:43;14.00;99.90
11221;DHT22;8517;53.546;10.104;2023-05-27T05:20:12;14.00;99.90
11221;DHT22;8517;53.546;10.104;2023-05-27T05:22:39;14.20;99.90
11221;DHT22;8517;53.546;10.104;2023-05-27T05:25:06;14.30;99.90
11221;DHT22;8517;53.546;10.104;2023-05-27T05:27:33;14.30;99.90
11221;DHT22;8517;53.546;10.104;2023-05-27T05:30:02;14.40;99.90
11221;DHT22;8517;53.546;10.104;2023-05-27T05:32:29;14.40;99.90
11221;DHT22;8517;53.546;10.104;2023-05-27T05:34:56;14.50;99.90
11221;DHT22;8517;53.546;10.104;2023-05-27T05:37:24;14.60;99.90
11221;DHT22;8517;53.546;10.104;2023-05-27T05:39:54;14.60;99.90
11221;DHT22;8517;53.546;10.104;2023-05-27T05:42:21;14.60;99.90
11221;DHT22;8517;53.546;10.104;2023-05-27T05:44:49;14.60;99.90
11221;DHT22;8517;53.546;10.104;2023-05-27T05:47:16;14.70;99.90
11221;DHT22;8517;53.546;10.104;2023-05-27T05:49:42;14.80;99.90
11221;DHT22;8517;53.546;10.104;2023-05-27T05:52:09;14.80;99.90
11221;DHT22;8517;53.546;10.104;2023-05-27T05:54:39;14.90;99.90
11221;DHT22;8517;53.546;10.104;2023-05-27T05:57:06;14.90;99.90
11221;DHT22;8517;53.546;10.104;2023-05-27T05:59:33;15.00;99.90
11221;DHT22;8517;53.546;10.104;2023-05-27T06:02:00;15.20;99.90
11221;DHT22;8517;53.546;10.104;2023-05-27T06:04:26;15.40;99.90
11221;DHT22;8517;53.546;10.104;2023-05-27T06:06:53;15.60;99.90
11221;DHT22;8517;53.546;10.104;2023-05-27T06:09:21;15.90;99.90
11221;DHT22;8517;53.546;10.104;2023-05-27T06:11:49;16.20;99.90
11221;DHT22;8517;53.546;10.104;2023-05-27T06:14:16;16.40;99.90
11221;DHT22;8517;53.546;10.104;2023-05-27T06:16:43;16.60;99.90
11221;DHT22;8517;53.546;10.104;2023-05-27T06:19:10;16.90;99.90
11221;DHT22;8517;53.546;10.104;2023-05-27T06:21:36;17.30;99.90
11221;DHT22;8517;53.546;10.104;2023-05-27T06:24:04;17.60;99.90
11221;DHT22;8517;53.546;10.104;2023-05-27T06:26:31;18.00;99.90
11221;DHT22;8517;53.546;10.104;2023-05-27T06:29:45;18.40;99.90
11221;DHT22;8517;53.546;10.104;2023-05-27T06:32:12;18.80;99.90
11221;DHT22;8517;53.546;10.104;2023-05-27T06:34:39;19.20;99.90
11221;DHT22;8517;53.546;10.104;2023-05-27T06:37:06;19.50;99.90
11221;DHT22;8517;53.546;10.104;2023-05-27T06:39:32;19.80;99.90
11221;DHT22;8517;53.546;10.104;2023-05-27T06:41:59;20.00;99.90
11221;DHT22;8517;53.546;10.104;2023-05-27T06:44:27;20.30;99.90
11221;DHT22;8517;53.546;10.104;2023-05-27T06:46:55;20.40;99.90
11221;DHT22;8517;53.546;10.104;2023-05-27T06:49:21;20.60;99.90
11221;DHT22;8517;53.546;10.104;2023-05-27T06:51:48;20.80;99.90
11221;DHT22;8517;53.546;10.104;2023-05-27T06:54:15;20.90;99.90
11221;DHT22;8517;53.546;10.104;2023-05-27T06:56:42;21.10;99.90
11221;DHT22;8517;53.546;10.104;2023-05-27T06:59:09;21.30;99.90
11221;DHT22;8517;53.546;10.104;2023-05-27T07:01:35;21.50;99.90
11221;DHT22;8517;53.546;10.104;2023-05-27T07:04:04;21.80;99.90
11221;DHT22;8517;53.546;10.104;2023-05-27T07:06:31;21.90;99.90
11221;DHT22;8517;53.546;10.104;2023-05-27T07:08:58;22.20;99.90
11221;DHT22;8517;53.546;10.104;2023-05-27T07:11:24;22.50;99.90
11221;DHT22;8517;53.546;10.104;2023-05-27T07:13:51;22.70;99.90
11221;DHT22;8517;53.546;10.104;2023-05-27T07:16:18;23.00;99.90
11221;DHT22;8517;53.546;10.104;2023-05-27T07:18:46;23.10;99.90
11221;DHT22;8517;53.546;10.104;2023-05-27T07:21:15;23.20;99.90
11221;DHT22;8517;53.546;10.104;2023-05-27T07:23:41;23.20;99.90
11221;DHT22;8517;53.546;10.104;2023-05-27T07:26:08;23.30;99.90
11221;DHT22;8517;53.546;10.104;2023-05-27T07:28:35;23.30;99.90
11221;DHT22;8517;53.546;10.104;2023-05-27T07:31:03;23.30;99.90
11221;DHT22;8517;53.546;10.104;2023-05-27T07:33:30;23.30;99.90
11221;DHT22;8517;53.546;10.104;2023-05-27T07:35:57;23.30;99.90
11221;DHT22;8517;53.546;10.104;2023-05-27T07:38:25;23.20;99.90
11221;DHT22;8517;53.546;10.104;2023-05-27T07:40:52;23.20;99.90
11221;DHT22;8517;53.546;10.104;2023-05-27T07:43:19;23.30;99.90
11221;DHT22;8517;53.546;10.104;2023-05-27T07:45:45;23.30;99.90
11221;DHT22;8517;53.546;10.104;2023-05-27T07:48:12;23.40;99.90
11221;DHT22;8517;53.546;10.104;2023-05-27T07:50:39;23.40;99.90
11221;DHT22;8517;53.546;10.104;2023-05-27T07:53:06;23.40;99.90
11221;DHT22;8517;53.546;10.104;2023-05-27T07:55:34;23.40;99.90
11221;DHT22;8517;53.546;10.104;2023-05-27T07:58:01;23.40;99.90
11221;DHT22;8517;53.546;10.104;2023-05-27T08:00:27;23.40;99.90
11221;DHT22;8517;53.546;10.104;2023-05-27T08:02:54;23.40;99.90
11221;DHT22;8517;53.546;10.104;2023-05-27T08:05:21;23.40;99.90
11221;DHT22;8517;53.546;10.104;2023-05-27T08:07:48;23.30;99.90
11221;DHT22;8517;53.546;10.104;2023-05-27T08:10:15;23.30;99.90
11221;DHT22;8517;53.546;10.104;2023-05-27T08:12:43;23.20;99.90
11221;DHT22;8517;53.546;10.104;2023-05-27T08:15:10;23.20;99.90
11221;DHT22;8517;53.546;10.104;2023-05-27T08:17:37;23.30;99.90
11221;DHT22;8517;53.546;10.104;2023-05-27T08:20:05;23.20;99.90
11221;DHT22;8517;53.546;10.104;2023-05-27T08:22:33;23.20;99.90
11221;DHT22;8517;53.546;10.104;2023-05-27T08:25:00;23.10;99.90
11221;DHT22;8517;53.546;10.104;2023-05-27T08:27:45;23.10;99.90
11221;DHT22;8517;53.546;10.104;2023-05-27T08:30:12;23.00;99.90
11221;DHT22;8517;53.546;10.104;2023-05-27T08:32:40;23.00;99.90
11221;DHT22;8517;53.546;10.104;2023-05-27T08:35:07;22.90;99.90
11221;DHT22;8517;53.546;10.104;2023-05-27T08:37:34;22.90;99.90
11221;DHT22;8517;53.546;10.104;2023-05-27T08:40:01;23.00;99.90
11221;DHT22;8517;53.546;10.104;2023-05-27T08:42:30;22.90;99.90
11221;DHT22;8517;53.546;10.104;2023-05-27T08:44:59;22.90;99.90
11221;DHT22;8517;53.546;10.104;2023-05-27T08:47:27;22.80;99.90
11221;DHT22;8517;53.546;10.104;2023-05-27T08:49:54;22.80;99.90
11221;DHT22;8517;53.546;10.104;2023-05-27T08:52:21;22.70;99.90
11221;DHT22;8517;53.546;10.104;2023-05-27T08:54:50;22.70;99.90
11221;DHT22;8517;53.546;10.104;2023-05-27T08:57:20;22.80;99.90
11221;DHT22;8517;53.546;10.104;2023-05-27T08:59:49;22.90;99.90
11221;DHT22;8517;53.546;10.104;2023-05-27T09:02:19;23.00;99.90
11221;DHT22;8517;53.546;10.104;2023-05-27T09:04:47;23.10;99.90
11221;DHT22;8517;53.546;10.104;2023-05-27T09:07:13;23.20;99.90
11221;DHT22;8517;53.546;10.104;2023-05-27T09:09:42;23.30;99.90
11221;DHT22;8517;53.546;10.104;2023-05-27T09:12:09;23.30;99.90
11221;DHT22;8517;53.546;10.104;2023-05-27T09:14:35;23.40;99.90
11221;DHT22;8517;53.546;10.104;2023-05-27T09:17:07;23.40;99.90
11221;DHT22;8517;53.546;10.104;2023-05-27T09:19:36;23.40;99.90
11221;DHT22;8517;53.546;10.104;2023-05-27T09:22:03;23.30;99.90
11221;DHT22;8517;53.546;10.104;2023-05-27T09:24:30;23.30;99.90
11221;DHT22;8517;53.546;10.104;2023-05-27T09:26:57;23.20;99.90
11221;DHT22;8517;53.546;10.104;2023-05-27T09:29:24;23.10;99.90
11221;DHT22;8517;53.546;10.104;2023-05-27T09:31:53;23.10;99.90
11221;DHT22;8517;53.546;10.104;2023-05-27T09:34:21;23.00;99.90
11221;DHT22;8517;53.546;10.104;2023-05-27T09:36:50;23.00;99.90
11221;DHT22;8517;53.546;10.104;2023-05-27T09:39:19;22.80;99.90
11221;DHT22;8517;53.546;10.104;2023-05-27T09:41:50;22.80;99.90
11221;DHT22;8517;53.546;10.104;2023-05-27T09:44:17;22.70;99.90
11221;DHT22;8517;53.546;10.104;2023-05-27T09:46:44;22.70;99.90
11221;DHT22;8517;53.546;10.104;2023-05-27T09:49:12;22.70;99.90
11221;DHT22;8517;53.546;10.104;2023-05-27T09:51:40;22.70;99.90
11221;DHT22;8517;53.546;10.104;2023-05-27T09:54:09;22.70;99.90
11221;DHT22;8517;53.546;10.104;2023-05-27T09:56:38;22.80;99.90
11221;DHT22;8517;53.546;10.104;2023-05-27T09:59:05;22.90;99.90
11221;DHT22;8517;53.546;10.104;2023-05-27T10:01:32;22.90;99.90
11221;DHT22;8517;53.546;10.104;2023-05-27T10:04:01;23.00;99.90
11221;DHT22;8517;53.546;10.104;2023-05-27T10:06:29;23.00;99.90
11221;DHT22;8517;53.546;10.104;2023-05-27T10:08:57;23.10;99.90
11221;DHT22;8517;53.546;10.104;2023-05-27T10:11:26;23.10;99.90
11221;DHT22;8517;53.546;10.104;2023-05-27T10:13:56;23.20;99.90
11221;DHT22;8517;53.546;10.104;2023-05-27T10:16:25;23.30;99.90
11221;DHT22;8517;53.546;10.104;2023-05-27T10:18:53;23.30;99.90
11221;DHT22;8517;53.546;10.104;2023-05-27T10:21:21;23.40;99.90
11221;DHT22;8517;53.546;10.104;2023-05-27T10:23:55;23.40;99.90
11221;DHT22;8517;53.546;10.104;2023-05-27T10:26:33;23.40;99.90
11221;DHT22;8517;53.546;10.104;2023-05-27T10:29:07;23.40;99.90
11221;DHT22;8517;53.546;10.104;2023-05-27T10:31:34;23.40;99.90
11221;DHT22;8517;53.546;10.104;2023-05-27T10:34:04;23.40;99.90
11221;DHT22;8517;53.546;10.104;2023-05-27T10:36:31;23.30;99.90
11221;DHT22;8517;53.546;10.104;2023-05-27T10:39:00;23.30;99.90
11221;DHT22;8517;53.546;10.104;2023-05-27T10:41:27;23.30;99.90
11221;DHT22;8517;53.546;10.104;2023-05-27T10:43:58;23.30;99.90
11221;DHT22;8517;53.546;10.104;2023-05-27T10:46:25;23.30;99.90
11221;DHT22;8517;53.546;10.104;2023-05-27T10:48:52;23.30;99.90
11221;DHT22;8517;53.546;10.104;2023-05-27T10:51:19;23.20;99.90
11221;DHT22;8517;53.546;10.104;2023-05-27T10:53:46;23.20;99.90
11221;DHT22;8517;53.546;10.104;2023-05-27T10:56:13;23.20;99.90
11221;DHT22;8517;53.546;10.104;2023-05-27T10:58:40;23.20;99.90
11221;DHT22;8517;53.546;10.104;2023-05-27T11:01:09;23.20;99.90
11221;DHT22;8517;53.546;10.104;2023-05-27T11:03:42;23.20;99.90
11221;DHT22;8517;53.546;10.104;2023-05-27T11:06:10;23.10;99.90
11221;DHT22;8517;53.546;10.104;2023-05-27T11:08:38;23.00;99.90
11221;DHT22;8517;53.546;10.104;2023-05-27T11:11:07;23.00;99.90
11221;DHT22;8517;53.546;10.104;2023-05-27T11:13:36;22.90;99.90
11221;DHT22;8517;53.546;10.104;2023-05-27T11:16:05;22.80;99.90
11221;DHT22;8517;53.546;10.104;2023-05-27T11:18:41;22.70;99.90
11221;DHT22;8517;53.546;10.104;2023-05-27T11:21:10;22.60;99.90
11221;DHT22;8517;53.546;10.104;2023-05-27T11:23:38;22.50;99.90
11221;DHT22;8517;53.546;10.104;2023-05-27T11:26:11;22.50;99.90
11221;DHT22;8517;53.546;10.104;2023-05-27T11:28:45;22.40;99.90
11221;DHT22;8517;53.546;10.104;2023-05-27T11:31:12;22.40;99.90
11221;DHT22;8517;53.546;10.104;2023-05-27T11:33:42;22.40;99.90
11221;DHT22;8517;53.546;10.104;2023-05-27T11:36:12;22.30;99.90
11221;DHT22;8517;53.546;10.104;2023-05-27T11:38:52;22.30;99.90
11221;DHT22;8517;53.546;10.104;2023-05-27T11:41:20;22.30;99.90
11221;DHT22;8517;53.546;10.104;2023-05-27T11:43:51;22.30;99.90
11221;DHT22;8517;53.546;10.104;2023-05-27T11:46:18;22.30;99.90
11221;DHT22;8517;53.546;10.104;2023-05-27T11:48:47;22.40;99.90
11221;DHT22;8517;53.546;10.104;2023-05-27T11:51:14;22.40;99.90
11221;DHT22;8517;53.546;10.104;2023-05-27T11:53:44;22.50;99.90
11221;DHT22;8517;53.546;10.104;2023-05-27T11:56:11;22.50;99.90
11221;DHT22;8517;53.546;10.104;2023-05-27T11:58:38;22.50;99.90
11221;DHT22;8517;53.546;10.104;2023-05-27T12:01:05;22.60;99.90
11221;DHT22;8517;53.546;10.104;2023-05-27T12:03:33;22.60;99.90
11221;DHT22;8517;53.546;10.104;2023-05-27T12:06:02;22.60;99.90
11221;DHT22;8517;53.546;10.104;2023-05-27T12:08:29;22.70;99.90
11221;DHT22;8517;53.546;10.104;2023-05-27T12:10:56;22.70;99.90
11221;DHT22;8517;53.546;10.104;2023-05-27T12:13:23;22.80;99.90
11221;DHT22;8517;53.546;10.104;2023-05-27T12:15:51;22.80;99.90
11221;DHT22;8517;53.546;10.104;2023-05-27T12:18:18;22.90;99.90
11221;DHT22;8517;53.546;10.104;2023-05-27T12:20:45;23.00;99.90
11221;DHT22;8517;53.546;10.104;2023-05-27T12:23:13;23.10;99.90
11221;DHT22;8517;53.546;10.104;2023-05-27T12:25:40;23.20;99.90
11221;DHT22;8517;53.546;10.104;2023-05-27T12:28:07;23.30;99.90
11221;DHT22;8517;53.546;10.104;2023-05-27T12:30:34;23.30;99.90
11221;DHT22;8517;53.546;10.104;2023-05-27T12:33:02;23.30;99.90
11221;DHT22;8517;53.546;10.104;2023-05-27T12:35:29;23.30;99.90
11221;DHT22;8517;53.546;10.104;2023-05-27T12:38:15;23.30;99.90
11221;DHT22;8517;53.546;10.104;2023-05-27T12:40:41;23.40;99.90
11221;DHT22;8517;53.546;10.104;2023-05-27T12:43:08;23.40;99.90
11221;DHT22;8517;53.546;10.104;2023-05-27T12:45:35;23.30;99.90
11221;DHT22;8517;53.546;10.104;2023-05-27T12:48:02;23.40;99.90
11221;DHT22;8517;53.546;10.104;2023-05-27T12:50:29;23.40;99.90
11221;DHT22;8517;53.546;10.104;2023-05-27T12:52:57;23.40;99.90
11221;DHT22;8517;53.546;10.104;2023-05-27T12:55:26;23.40;99.90
11221;DHT22;8517;53.546;10.104;2023-05-27T12:57:53;23.50;99.90
11221;DHT22;8517;53.546;10.104;2023-05-27T13:00:20;23.50;99.90
11221;DHT22;8517;53.546;10.104;2023-05-27T13:02:48;23.40;99.90
11221;DHT22;8517;53.546;10.104;2023-05-27T13:05:15;23.40;99.90
11221;DHT22;8517;53.546;10.104;2023-05-27T13:07:53;23.50;99.90
11221;DHT22;8517;53.546;10.104;2023-05-27T13:10:20;23.50;99.90
11221;DHT22;8517;53.546;10.104;2023-05-27T13:12:49;23.50;99.90
11221;DHT22;8517;53.546;10.104;2023-05-27T13:15:16;23.60;99.90
11221;DHT22;8517;53.546;10.104;2023-05-27T13:17:43;23.60;99.90
11221;DHT22;8517;53.546;10.104;2023-05-27T13:20:11;23.50;99.90
11221;DHT22;8517;53.546;10.104;2023-05-27T13:22:38;23.60;99.90
11221;DHT22;8517;53.546;10.104;2023-05-27T13:25:06;23.60;99.90
11221;DHT22;8517;53.546;10.104;2023-05-27T13:27:33;23.60;99.90
11221;DHT22;8517;53.546;10.104;2023-05-27T13:30:01;23.70;99.90
11221;DHT22;8517;53.546;10.104;2023-05-27T13:32:29;23.60;99.90
11221;DHT22;8517;53.546;10.104;2023-05-27T13:34:55;23.60;99.90
11221;DHT22;8517;53.546;10.104;2023-05-27T13:37:22;23.40;99.90
11221;DHT22;8517;53.546;10.104;2023-05-27T13:39:49;23.30;99.90
11221;DHT22;8517;53.546;10.104;2023-05-27T13:42:16;23.30;99.90
11221;DHT22;8517;53.546;10.104;2023-05-27T13:44:42;23.20;99.90
11221;DHT22;8517;53.546;10.104;2023-05-27T13:47:11;23.10;99.90
11221;DHT22;8517;53.546;10.104;2023-05-27T13:49:38;23.10;99.90
11221;DHT22;8517;53.546;10.104;2023-05-27T13:52:04;23.10;99.90
11221;DHT22;8517;53.546;10.104;2023-05-27T13:54:31;23.10;99.90
11221;DHT22;8517;53.546;10.104;2023-05-27T13:56:58;23.20;99.90
11221;DHT22;8517;53.546;10.104;2023-05-27T13:59:25;23.20;99.90
11221;DHT22;8517;53.546;10.104;2023-05-27T14:01:52;23.20;99.90
11221;DHT22;8517;53.546;10.104;2023-05-27T14:04:21;23.20;99.90
11221;DHT22;8517;53.546;10.104;2023-05-27T14:06:48;23.30;99.90
11221;DHT22;8517;53.546;10.104;2023-05-27T14:09:14;23.40;99.90
11221;DHT22;8517;53.546;10.104;2023-05-27T14:11:41;23.40;99.90
11221;DHT22;8517;53.546;10.104;2023-05-27T14:14:08;23.50;99.90
11221;DHT22;8517;53.546;10.104;2023-05-27T14:16:35;23.60;99.90
11221;DHT22;8517;53.546;10.104;2023-05-27T14:19:01;23.60;99.90
11221;DHT22;8517;53.546;10.104;2023-05-27T14:21:29;23.70;99.90
11221;DHT22;8517;53.546;10.104;2023-05-27T14:23:58;23.70;99.90
11221;DHT22;8517;53.546;10.104;2023-05-27T14:26:26;23.80;99.90
11221;DHT22;8517;53.546;10.104;2023-05-27T14:28:54;23.80;99.90
11221;DHT22;8517;53.546;10.104;2023-05-27T14:31:21;23.80;99.90
11221;DHT22;8517;53.546;10.104;2023-05-27T14:33:47;23.80;99.90
11221;DHT22;8517;53.546;10.104;2023-05-27T14:36:14;23.80;99.90
11221;DHT22;8517;53.546;10.104;2023-05-27T14:38:42;23.80;99.90
11221;DHT22;8517;53.546;10.104;2023-05-27T14:41:09;23.80;99.90
11221;DHT22;8517;53.546;10.104;2023-05-27T14:43:36;23.80;99.90
11221;DHT22;8517;53.546;10.104;2023-05-27T14:46:03;23.90;99.90
11221;DHT22;8517;53.546;10.104;2023-05-27T14:48:30;23.90;99.90
11221;DHT22;8517;53.546;10.104;2023-05-27T14:50:57;23.90;99.90
11221;DHT22;8517;53.546;10.104;2023-05-27T14:53:23;23.90;99.90
11221;DHT22;8517;53.546;10.104;2023-05-27T14:55:51;23.90;99.90
11221;DHT22;8517;53.546;10.104;2023-05-27T14:58:20;23.90;99.90
11221;DHT22;8517;53.546;10.104;2023-05-27T15:00:47;23.90;99.90
11221;DHT22;8517;53.546;10.104;2023-05-27T15:03:14;23.90;99.90
11221;DHT22;8517;53.546;10.104;2023-05-27T15:05:41;23.90;99.90
11221;DHT22;8517;53.546;10.104;2023-05-27T15:08:08;23.90;99.90
11221;DHT22;8517;53.546;10.104;2023-05-27T15:10:41;23.90;99.90
11221;DHT22;8517;53.546;10.104;2023-05-27T15:13:09;23.80;99.90
11221;DHT22;8517;53.546;10.104;2023-05-27T15:15:37;23.80;99.90
11221;DHT22;8517;53.546;10.104;2023-05-27T15:18:05;23.80;99.90
11221;DHT22;8517;53.546;10.104;2023-05-27T15:20:33;23.80;99.90
11221;DHT22;8517;53.546;10.104;2023-05-27T15:23:00;23.80;99.90
11221;DHT22;8517;53.546;10.104;2023-05-27T15:25:27;23.80;99.90
11221;DHT22;8517;53.546;10.104;2023-05-27T15:27:54;23.80;99.90
11221;DHT22;8517;53.546;10.104;2023-05-27T15:30:22;23.70;99.90
11221;DHT22;8517;53.546;10.104;2023-05-27T15:32:49;23.80;99.90
11221;DHT22;8517;53.546;10.104;2023-05-27T15:35:16;23.80;99.90
11221;DHT22;8517;53.546;10.104;2023-05-27T15:37:43;23.80;99.90